Animas, New Mexico
Current Conditions -  °F | °C
As of 5:35 AM on Saturday 01 Nov 2014 (Local Time) from KLSB Reporting Station
Clear Clear  
Wind Chill: 59°   Ceiling: Unl
Heat Index: 59°   Visibility: 10mi
Dew Point: 41°   Wind: 8mph
Humidity: 51%   Direction: 140°SE
Pressure: 30.07"   Gusts: 23mph
Location:  31.95°N, 108.81°W
Report Text: KLSB 011135Z AUTO 14007G20KT 10SM CLR 15/05 A3007 RMK AO2
Loading
Personal Weather Stations






























Interactive Weather Map
Tropical Storm Tracking
New forecast layout! Learn more

10-Day Weather Forecast

Advertisements
Track Severe Weather on mobile